createdAt,value
2019-04-05T00:01:56.428Z,53.63
2019-04-05T00:04:24.635Z,51.67
2019-04-05T00:06:52.834Z,52.90
2019-04-05T00:09:21.046Z,50.70
2019-04-05T00:11:49.534Z,49.30
2019-04-05T00:14:17.744Z,51.73
2019-04-05T00:16:46.657Z,52.30
2019-04-05T00:19:14.884Z,50.90
2019-04-05T00:21:43.088Z,52.43
2019-04-05T00:24:11.282Z,51.27
2019-04-05T00:26:39.504Z,50.70
2019-04-05T00:29:07.705Z,51.43
2019-04-05T00:31:35.914Z,51.33
2019-04-05T00:34:04.114Z,51.63
2019-04-05T00:36:32.335Z,51.00
2019-04-05T00:39:00.542Z,49.20
2019-04-05T00:41:28.740Z,51.33
2019-04-05T00:43:56.960Z,52.87
2019-04-05T00:46:25.159Z,53.83
2019-04-05T00:48:53.375Z,51.00
2019-04-05T00:51:21.644Z,53.47
2019-04-05T00:53:49.873Z,52.30
2019-04-05T00:56:18.077Z,52.57
2019-04-05T00:58:46.288Z,52.80
2019-04-05T01:01:14.510Z,51.30
2019-04-05T01:03:42.713Z,50.77
2019-04-05T01:06:10.923Z,53.27
2019-04-05T01:08:39.125Z,51.27
2019-04-05T01:11:07.345Z,54.47
2019-04-05T01:13:35.550Z,53.83
2019-04-05T01:16:03.778Z,55.77
2019-04-05T01:18:31.989Z,52.53
2019-04-05T01:21:02.439Z,53.97
2019-04-05T01:23:30.633Z,53.53
2019-04-05T01:25:58.916Z,51.50
2019-04-05T01:28:27.122Z,54.77
2019-04-05T01:30:55.338Z,52.70
2019-04-05T01:33:23.540Z,49.20
2019-04-05T01:35:51.826Z,52.00
2019-04-05T01:38:20.024Z,52.37
2019-04-05T01:40:48.236Z,55.10
2019-04-05T01:43:16.454Z,52.70
2019-04-05T01:45:53.725Z,54.23
2019-04-05T01:48:16.805Z,53.67
2019-04-05T01:50:45.016Z,52.33
2019-04-05T01:53:13.225Z,52.43
2019-04-05T01:55:41.452Z,51.53
2019-04-05T01:58:09.652Z,54.93
2019-04-05T02:00:37.882Z,53.03
2019-04-05T02:03:06.083Z,52.17
2019-04-05T02:05:34.305Z,52.67
2019-04-05T02:08:02.511Z,54.10
2019-04-05T02:10:30.734Z,52.77
2019-04-05T02:12:58.942Z,51.70
2019-04-05T02:15:28.384Z,52.77
2019-04-05T02:17:56.770Z,51.27
2019-04-05T02:20:24.975Z,52.43
2019-04-05T02:22:53.213Z,52.57
2019-04-05T02:25:21.415Z,53.27
2019-04-05T02:27:49.879Z,48.40
2019-04-05T02:30:19.710Z,49.73
2019-04-05T02:32:47.923Z,52.10
2019-04-05T02:35:16.129Z,52.50
2019-04-05T02:37:44.354Z,52.13
2019-04-05T02:40:14.867Z,52.07
2019-04-05T02:42:43.066Z,54.27
2019-04-05T02:45:11.263Z,52.60
2019-04-05T02:47:40.718Z,52.63
2019-04-05T02:50:08.919Z,52.73
2019-04-05T02:52:37.135Z,51.30
2019-04-05T02:55:05.402Z,51.63
2019-04-05T02:57:33.615Z,52.07
2019-04-05T03:00:01.959Z,50.53
2019-04-05T03:02:30.198Z,51.67
2019-04-05T03:04:58.404Z,52.00
2019-04-05T03:07:26.879Z,50.13
2019-04-05T03:09:55.241Z,51.43
2019-04-05T03:12:23.462Z,48.90
2019-04-05T03:14:51.665Z,49.90
2019-04-05T03:17:19.868Z,50.20
2019-04-05T03:19:48.070Z,50.33
2019-04-05T03:22:16.285Z,51.40
2019-04-05T03:24:44.658Z,48.63
2019-04-05T03:27:15.009Z,51.83
2019-04-05T03:29:43.213Z,50.37
2019-04-05T03:32:11.455Z,49.07
2019-04-05T03:34:39.866Z,52.23
2019-04-05T03:37:08.110Z,51.70
2019-04-05T03:39:36.380Z,50.23
2019-04-05T03:42:04.766Z,49.90
2019-04-05T03:44:32.965Z,50.57
2019-04-05T03:47:01.190Z,49.97
2019-04-05T03:49:29.396Z,49.73
2019-04-05T03:51:57.605Z,50.03
2019-04-05T03:54:25.868Z,49.73
2019-04-05T03:56:54.029Z,49.43
2019-04-05T03:59:22.239Z,50.03
2019-04-05T04:01:52.071Z,53.33
2019-04-05T04:04:20.290Z,51.03
2019-04-05T04:06:48.573Z,52.13
2019-04-05T04:09:16.808Z,50.80
2019-04-05T04:11:45.004Z,53.73
2019-04-05T04:14:13.486Z,51.17
2019-04-05T04:16:41.679Z,52.60
2019-04-05T04:19:09.901Z,51.77
2019-04-05T04:21:50.255Z,51.60
2019-04-05T04:24:18.739Z,48.93
2019-04-05T04:26:46.938Z,51.77
2019-04-05T04:29:15.161Z,49.47
2019-04-05T04:31:43.366Z,48.43
2019-04-05T04:34:11.590Z,48.17
2019-04-05T04:36:39.799Z,48.67
2019-04-05T04:39:08.021Z,47.53
2019-04-05T04:41:36.232Z,46.37
2019-04-05T04:44:04.439Z,48.93
2019-04-05T04:46:32.984Z,48.27
2019-04-05T04:49:01.203Z,50.00
2019-04-05T04:51:29.405Z,48.93
2019-04-05T04:53:57.618Z,50.30
2019-04-05T04:56:25.820Z,48.83
2019-04-05T04:58:54.030Z,49.63
2019-04-05T05:01:22.372Z,49.03
2019-04-05T05:03:50.586Z,51.07
2019-04-05T05:06:18.785Z,41.73
2019-04-05T05:08:47.017Z,40.80
2019-04-05T05:11:15.308Z,42.13
2019-04-05T05:13:43.495Z,42.10
2019-04-05T05:16:12.175Z,43.73
2019-04-05T05:18:40.385Z,48.70
2019-04-05T05:21:08.602Z,49.87
2019-04-05T05:23:36.808Z,53.00
2019-04-05T05:26:05.028Z,53.63
2019-04-05T05:28:33.236Z,51.00
2019-04-05T05:31:01.454Z,50.87
2019-04-05T05:33:29.652Z,51.43
2019-04-05T05:35:57.863Z,50.87
2019-04-05T05:38:26.063Z,52.13
2019-04-05T05:40:54.278Z,52.77
2019-04-05T05:43:23.996Z,48.47
2019-04-05T05:45:52.273Z,50.27
2019-04-05T05:48:20.483Z,50.33
2019-04-05T05:50:48.771Z,49.70
2019-04-05T05:53:16.969Z,50.10
2019-04-05T05:55:45.194Z,52.37
2019-04-05T05:58:13.394Z,51.33
2019-04-05T06:00:41.617Z,52.10
2019-04-05T06:03:12.031Z,50.40
2019-04-05T06:05:40.240Z,51.50
2019-04-05T06:08:08.449Z,51.90
2019-04-05T06:10:36.671Z,50.53
2019-04-05T06:13:07.214Z,53.30
2019-04-05T06:15:37.415Z,50.97
2019-04-05T06:18:05.211Z,53.07
2019-04-05T06:20:33.433Z,55.27
2019-04-05T06:23:01.638Z,54.83
2019-04-05T06:25:29.850Z,54.93
2019-04-05T06:27:59.770Z,53.90
2019-04-05T06:30:28.851Z,53.80
2019-04-05T06:32:57.246Z,54.03
2019-04-05T06:35:25.465Z,55.70
2019-04-05T06:37:53.671Z,53.80
2019-04-05T06:40:21.883Z,55.00
2019-04-05T06:42:50.097Z,54.03
2019-04-05T06:45:18.297Z,55.40
2019-04-05T06:47:46.524Z,53.77
2019-04-05T06:50:14.731Z,55.57
2019-04-05T06:52:42.952Z,55.20
2019-04-05T06:55:11.155Z,53.23
2019-04-05T06:57:39.365Z,54.03
2019-04-05T07:00:07.575Z,54.57
2019-04-05T07:02:35.788Z,52.60
2019-04-05T07:05:05.730Z,53.50
2019-04-05T07:07:33.943Z,53.80
2019-04-05T07:10:02.142Z,52.30
2019-04-05T07:12:30.592Z,52.37
2019-04-05T07:14:58.807Z,54.20
2019-04-05T07:17:27.006Z,53.40
2019-04-05T07:19:55.217Z,54.13
2019-04-05T07:22:36.910Z,49.93
2019-04-05T07:24:54.094Z,52.10
2019-04-05T07:27:22.288Z,51.93
2019-04-05T07:29:50.503Z,51.50
2019-04-05T07:32:18.705Z,51.07
2019-04-05T07:34:46.928Z,50.53
2019-04-05T07:37:15.121Z,53.57
2019-04-05T07:39:43.337Z,50.07
2019-04-05T07:42:11.536Z,52.37
2019-04-05T07:44:39.762Z,51.97
2019-04-05T07:47:07.969Z,51.07
2019-04-05T07:49:36.174Z,49.97
2019-04-05T07:52:04.386Z,51.60
2019-04-05T07:54:32.585Z,52.07
2019-04-05T07:57:00.803Z,52.10
2019-04-05T07:59:29.008Z,52.10
2019-04-05T08:01:57.231Z,51.30
2019-04-05T08:04:25.463Z,49.50
2019-04-05T08:06:53.890Z,51.30
2019-04-05T08:09:22.365Z,49.87
2019-04-05T08:11:50.819Z,50.40
2019-04-05T08:14:19.046Z,48.93
2019-04-05T08:16:47.270Z,50.13
2019-04-05T08:19:15.486Z,48.57
2019-04-05T08:21:43.719Z,45.60
2019-04-05T08:24:12.229Z,52.57
2019-04-05T08:26:40.684Z,49.63
2019-04-05T08:29:08.892Z,51.03
2019-04-05T08:31:37.137Z,51.53
2019-04-05T08:34:05.360Z,50.43
2019-04-05T08:36:33.562Z,51.93
2019-04-05T08:39:02.092Z,51.40
2019-04-05T08:41:31.832Z,49.57
2019-04-05T08:44:00.035Z,52.67
2019-04-05T08:46:28.256Z,50.63
2019-04-05T08:48:56.457Z,52.60
2019-04-05T08:51:24.730Z,51.77
2019-04-05T08:53:52.883Z,51.50
2019-04-05T08:56:21.093Z,52.17
2019-04-05T08:58:49.317Z,50.93
2019-04-05T09:01:17.527Z,50.20
2019-04-05T09:03:45.746Z,49.73
2019-04-05T09:06:13.952Z,51.80
2019-04-05T09:08:42.649Z,50.97
2019-04-05T09:11:10.849Z,51.50
2019-04-05T09:13:39.090Z,50.57
2019-04-05T09:16:07.292Z,50.23
2019-04-05T09:18:35.526Z,49.27
2019-04-05T09:21:03.726Z,48.40
2019-04-05T09:23:31.927Z,46.73
2019-04-05T09:26:00.148Z,50.70
2019-04-05T09:28:28.349Z,48.70
2019-04-05T09:30:56.568Z,52.13
2019-04-05T09:33:24.778Z,50.80
2019-04-05T09:35:52.998Z,51.63
2019-04-05T09:38:21.203Z,52.10
2019-04-05T09:40:49.425Z,36.20
2019-04-05T09:43:17.704Z,51.17
2019-04-05T09:45:47.543Z,51.17
2019-04-05T09:48:15.759Z,50.40
2019-04-05T09:50:44.972Z,46.20
2019-04-05T09:53:13.195Z,48.47
2019-04-05T09:55:41.402Z,51.27
2019-04-05T09:58:10.278Z,51.07
2019-04-05T10:00:39.079Z,47.77
2019-04-05T10:03:07.307Z,48.17
2019-04-05T10:05:35.518Z,47.53
2019-04-05T10:08:04.201Z,47.00
2019-04-05T10:10:32.413Z,49.73
2019-04-05T10:13:00.620Z,50.43
2019-04-05T10:15:28.840Z,51.23
2019-04-05T10:17:57.046Z,48.13
2019-04-05T10:20:25.345Z,48.63
2019-04-05T10:22:53.555Z,43.23
2019-04-05T10:25:21.782Z,42.30
2019-04-05T10:27:49.989Z,49.13
2019-04-05T10:30:18.218Z,48.33
2019-04-05T10:32:46.559Z,47.73
2019-04-05T10:35:14.729Z,47.90
2019-04-05T10:37:42.942Z,43.13
2019-04-05T10:40:11.141Z,46.10
2019-04-05T10:42:40.732Z,47.93
2019-04-05T10:45:09.880Z,43.20
2019-04-05T10:47:38.098Z,45.40
2019-04-05T10:50:07.946Z,37.43
2019-04-05T10:52:36.239Z,41.70
2019-04-05T10:55:04.780Z,45.50
2019-04-05T10:57:32.998Z,44.47
2019-04-05T11:00:01.198Z,41.57
2019-04-05T11:02:29.415Z,45.23
2019-04-05T11:04:57.624Z,37.20
2019-04-05T11:07:25.834Z,41.47
2019-04-05T11:09:54.055Z,36.67
2019-04-05T11:12:22.261Z,41.73
2019-04-05T11:14:50.480Z,39.17
2019-04-05T11:17:18.689Z,37.57
2019-04-05T11:19:48.369Z,38.20
2019-04-05T11:22:20.094Z,37.73
2019-04-05T11:24:46.509Z,36.93
2019-04-05T11:27:14.712Z,39.57
2019-04-05T11:29:42.935Z,40.47
2019-04-05T11:32:11.137Z,40.13
2019-04-05T11:34:39.365Z,42.07
2019-04-05T11:37:07.572Z,43.23
2019-04-05T11:39:35.791Z,41.50
2019-04-05T11:42:04.010Z,41.37
2019-04-05T11:44:32.392Z,41.30
2019-04-05T11:47:00.599Z,41.83
2019-04-05T11:49:28.832Z,42.23
2019-04-05T11:51:57.030Z,43.60
2019-04-05T11:54:25.248Z,40.70
2019-04-05T11:56:53.450Z,42.30
2019-04-05T11:59:21.671Z,44.37
2019-04-05T12:01:54.460Z,42.67
2019-04-05T12:04:22.680Z,41.30
2019-04-05T12:06:52.122Z,42.87
2019-04-05T12:09:20.784Z,39.07
2019-04-05T12:11:48.998Z,36.93
2019-04-05T12:14:29.608Z,39.07
2019-04-05T12:16:47.132Z,38.73
2019-04-05T12:19:15.352Z,37.53
2019-04-05T12:21:43.554Z,36.90
2019-04-05T12:24:11.784Z,38.73
2019-04-05T12:26:42.555Z,38.23
2019-04-05T12:29:09.924Z,38.37
2019-04-05T12:31:38.161Z,39.23
2019-04-05T12:34:06.368Z,34.73
2019-04-05T12:36:34.600Z,36.77
2019-04-05T12:39:04.745Z,40.43
2019-04-05T12:41:32.733Z,37.70
2019-04-05T12:44:00.939Z,36.53
2019-04-05T12:46:30.802Z,37.83
2019-04-05T12:48:59.000Z,35.73
2019-04-05T12:51:27.219Z,37.57
2019-04-05T12:53:56.859Z,37.30
2019-04-05T12:56:26.565Z,37.67
2019-04-05T12:58:56.060Z,38.43
2019-04-05T13:01:24.852Z,35.97
2019-04-05T13:03:54.452Z,35.77
2019-04-05T13:06:23.721Z,38.77
2019-04-05T13:08:53.755Z,38.20
2019-04-05T13:11:25.889Z,35.13
2019-04-05T13:13:51.816Z,36.37
2019-04-05T13:16:20.026Z,37.37
2019-04-05T13:18:48.251Z,37.13
2019-04-05T13:21:16.455Z,32.90
2019-04-05T13:23:45.140Z,33.33
2019-04-05T13:26:13.378Z,35.97
2019-04-05T13:28:41.571Z,38.23
2019-04-05T13:31:09.782Z,37.97
2019-04-05T13:33:38.006Z,33.83
2019-04-05T13:36:08.464Z,37.27
2019-04-05T13:38:36.172Z,38.00
2019-04-05T13:41:04.380Z,36.37
2019-04-05T13:43:32.800Z,37.50
2019-04-05T13:46:00.984Z,36.77
2019-04-05T13:48:29.232Z,38.47
2019-04-05T13:50:57.441Z,38.90
2019-04-05T13:53:25.665Z,35.87
2019-04-05T13:55:53.867Z,33.90
2019-04-05T13:58:22.085Z,33.73
2019-04-05T14:00:50.307Z,38.77
2019-04-05T14:03:20.440Z,35.50
2019-04-05T14:05:49.987Z,39.10
2019-04-05T14:08:18.811Z,36.83
2019-04-05T14:10:47.024Z,35.53
2019-04-05T14:13:15.246Z,36.30
2019-04-05T14:15:43.454Z,35.43
2019-04-05T14:18:14.514Z,37.10
2019-04-05T14:20:41.599Z,34.13
2019-04-05T14:23:09.821Z,37.37
2019-04-05T14:25:38.027Z,37.93
2019-04-05T14:28:06.247Z,38.07
2019-04-05T14:30:34.456Z,36.65
2019-04-05T14:33:02.943Z,37.67
2019-04-05T14:35:31.152Z,37.87
2019-04-05T14:38:00.839Z,39.53
2019-04-05T14:40:32.837Z,38.80
2019-04-05T14:42:58.986Z,38.45
2019-04-05T14:45:27.195Z,38.80
2019-04-05T14:47:57.619Z,39.55
2019-04-05T14:50:25.352Z,40.87
2019-04-05T14:52:53.558Z,39.23
2019-04-05T14:55:21.769Z,39.57
2019-04-05T14:57:49.994Z,38.17
2019-04-05T15:00:18.275Z,38.87
2019-04-05T15:02:46.484Z,37.53
2019-04-05T15:05:14.701Z,36.73
2019-04-05T15:07:42.917Z,38.00
2019-04-05T15:10:11.135Z,36.38
2019-04-05T15:12:39.344Z,36.37
2019-04-05T15:15:07.842Z,36.10
2019-04-05T15:17:47.297Z,38.55
2019-04-05T15:20:08.651Z,39.00
2019-04-05T15:22:37.331Z,38.65
2019-04-05T15:25:06.626Z,38.90
2019-04-05T15:27:34.837Z,39.27
2019-04-05T15:30:03.096Z,38.30
2019-04-05T15:32:32.744Z,39.85
2019-04-05T15:35:02.090Z,39.65
2019-04-05T15:37:32.483Z,39.87
2019-04-05T15:40:01.885Z,39.07
2019-04-05T15:42:30.083Z,38.10
2019-04-05T15:44:58.308Z,40.27
2019-04-05T15:47:26.834Z,41.87
2019-04-05T15:49:55.059Z,37.77
2019-04-05T15:52:23.261Z,40.00
2019-04-05T15:54:51.478Z,40.73
2019-04-05T15:57:19.690Z,39.93
2019-04-05T15:59:48.663Z,40.08
2019-04-05T16:02:17.314Z,38.88
2019-04-05T16:04:45.534Z,36.33
2019-04-05T16:07:13.739Z,37.43
2019-04-05T16:09:41.970Z,37.00
2019-04-05T16:12:10.182Z,39.85
2019-04-05T16:14:38.401Z,35.27
2019-04-05T16:17:06.610Z,38.63
2019-04-05T16:19:34.833Z,34.90
2019-04-05T16:22:03.294Z,36.77
2019-04-05T16:24:31.515Z,38.35
2019-04-05T16:26:59.719Z,37.10
2019-04-05T16:29:27.940Z,37.20
2019-04-05T16:31:56.148Z,35.53
2019-04-05T16:34:24.364Z,35.90
2019-04-05T16:36:52.561Z,38.90
2019-04-05T16:39:20.787Z,40.70
2019-04-05T16:41:48.973Z,43.37
2019-04-05T16:44:17.185Z,39.70
2019-04-05T16:46:45.387Z,39.13
2019-04-05T16:49:14.265Z,34.67
2019-04-05T16:51:42.471Z,38.87
2019-04-05T16:54:10.691Z,37.55
2019-04-05T16:56:38.904Z,36.43
2019-04-05T16:59:07.208Z,38.50
2019-04-05T17:01:35.420Z,39.40
2019-04-05T17:04:03.903Z,40.33
2019-04-05T17:06:32.105Z,38.90
2019-04-05T17:09:00.310Z,37.43
2019-04-05T17:11:28.536Z,38.97
2019-04-05T17:13:59.383Z,40.87
2019-04-05T17:16:26.691Z,38.43
2019-04-05T17:18:56.125Z,40.33
2019-04-05T17:21:25.979Z,37.97
2019-04-05T17:23:54.192Z,41.53
2019-04-05T17:26:22.412Z,39.73
2019-04-05T17:28:50.623Z,41.70
2019-04-05T17:31:18.838Z,41.30
2019-04-05T17:33:47.055Z,41.47
2019-04-05T17:36:15.275Z,37.13
2019-04-05T17:38:43.484Z,40.33
2019-04-05T17:41:11.708Z,37.63
2019-04-05T17:43:39.919Z,39.53
2019-04-05T17:46:09.614Z,38.80
2019-04-05T17:48:37.823Z,39.77
2019-04-05T17:51:06.031Z,41.20
2019-04-05T17:53:34.253Z,39.80
2019-04-05T17:56:02.467Z,38.73
2019-04-05T17:58:31.172Z,38.87
2019-04-05T18:00:59.379Z,40.63
2019-04-05T18:03:27.594Z,41.73
2019-04-05T18:05:55.808Z,41.47
2019-04-05T18:08:24.014Z,38.73
2019-04-05T18:10:52.231Z,42.33
2019-04-05T18:13:20.447Z,41.13
2019-04-05T18:15:52.661Z,43.00
2019-04-05T18:18:18.614Z,42.87
2019-04-05T18:20:46.838Z,41.33
2019-04-05T18:23:24.884Z,41.07
2019-04-05T18:25:44.991Z,42.17
2019-04-05T18:28:13.201Z,41.30
2019-04-05T18:30:42.390Z,40.20
2019-04-05T18:33:10.598Z,42.67
2019-04-05T18:35:38.812Z,42.17
2019-04-05T18:38:07.031Z,42.33
2019-04-05T18:40:40.201Z,41.73
2019-04-05T18:43:05.183Z,43.53
2019-04-05T18:45:33.739Z,43.47
2019-04-05T18:48:01.998Z,43.90
2019-04-05T18:50:30.205Z,44.53
2019-04-05T18:52:58.428Z,43.97
2019-04-05T18:55:26.643Z,44.47
2019-04-05T18:57:54.856Z,47.13
2019-04-05T19:00:23.060Z,46.57
2019-04-05T19:02:51.520Z,46.10
2019-04-05T19:05:19.734Z,45.70
2019-04-05T19:07:47.938Z,43.40
2019-04-05T19:10:16.162Z,42.30
2019-04-05T19:12:44.474Z,41.93
2019-04-05T19:15:12.759Z,42.33
2019-04-05T19:17:40.961Z,43.20
2019-04-05T19:20:09.182Z,43.90
2019-04-05T19:22:37.394Z,43.07
2019-04-05T19:25:07.052Z,42.50
2019-04-05T19:27:35.255Z,42.37
2019-04-05T19:50:06.781Z,44.07
2019-04-05T19:52:34.999Z,43.43
2019-04-05T19:55:03.211Z,44.73
2019-04-05T19:57:31.481Z,47.17
2019-04-05T19:59:59.641Z,46.63
2019-04-05T20:02:27.856Z,44.53
2019-04-05T20:04:56.060Z,47.47
2019-04-05T20:07:24.278Z,47.43
2019-04-05T20:09:52.481Z,48.17
2019-04-05T20:12:20.707Z,48.63
2019-04-05T20:14:48.910Z,53.70
2019-04-05T20:17:17.110Z,51.57
2019-04-05T20:19:45.324Z,51.47
2019-04-05T20:22:13.607Z,54.23
2019-04-05T20:24:41.835Z,55.40
2019-04-05T20:27:10.877Z,60.07
2019-04-05T20:29:39.090Z,60.87
2019-04-05T20:32:07.291Z,63.47
2019-04-05T20:34:35.512Z,63.63
2019-04-05T20:37:03.717Z,64.87
2019-04-05T20:39:32.171Z,63.60
2019-04-05T20:42:00.383Z,68.73
2019-04-05T20:44:28.591Z,67.97
2019-04-05T20:46:56.810Z,67.93
2019-04-05T20:49:25.021Z,69.17
2019-04-05T20:51:53.256Z,71.07
2019-04-05T20:54:24.786Z,65.97
2019-04-05T20:56:51.406Z,71.17
2019-04-05T20:59:19.617Z,69.63
2019-04-05T21:01:47.830Z,72.07
2019-04-05T21:04:16.067Z,73.33
2019-04-05T21:06:44.289Z,74.60
2019-04-05T21:09:12.571Z,71.37
2019-04-05T21:11:40.822Z,74.17
2019-04-05T21:14:08.992Z,72.43
2019-04-05T21:16:37.196Z,76.73
2019-04-05T21:19:05.427Z,72.33
2019-04-05T21:21:33.629Z,70.50
2019-04-05T21:24:01.853Z,69.60
2019-04-05T21:26:30.066Z,68.40
2019-04-05T21:28:58.275Z,70.23
2019-04-05T21:31:26.491Z,69.43
2019-04-05T21:33:54.699Z,71.50
2019-04-05T21:36:22.915Z,68.90
2019-04-05T21:38:51.129Z,72.73
2019-04-05T21:41:19.362Z,75.27
2019-04-05T21:43:47.571Z,75.67
2019-04-05T21:46:15.788Z,74.27
2019-04-05T21:48:45.610Z,75.53
2019-04-05T21:51:13.831Z,75.07
2019-04-05T21:53:42.040Z,71.47
2019-04-05T21:56:10.276Z,69.10
2019-04-05T21:58:38.487Z,66.73
2019-04-05T22:01:08.420Z,70.07
2019-04-05T22:03:36.632Z,69.97
2019-04-05T22:06:05.010Z,69.03
2019-04-05T22:08:33.233Z,71.43
2019-04-05T22:11:02.606Z,72.57
2019-04-05T22:13:30.830Z,74.43
2019-04-05T22:15:59.030Z,78.97
2019-04-05T22:18:27.321Z,80.87
2019-04-05T22:20:55.521Z,78.70
2019-04-05T22:23:23.738Z,78.30
2019-04-05T22:25:51.938Z,79.17
2019-04-05T22:28:20.147Z,78.73
2019-04-05T22:30:48.363Z,79.50
2019-04-05T22:33:16.568Z,77.73
2019-04-05T22:35:44.801Z,79.87
2019-04-05T22:38:13.002Z,80.17
2019-04-05T22:40:41.217Z,79.57
2019-04-05T22:43:09.427Z,75.60
2019-04-05T22:45:37.645Z,78.13
2019-04-05T22:48:05.856Z,75.67
2019-04-05T22:50:34.074Z,76.90
2019-04-05T22:53:02.275Z,75.90
2019-04-05T22:55:30.504Z,75.33
2019-04-05T22:57:58.706Z,75.73
2019-04-05T23:00:26.924Z,75.50
2019-04-05T23:02:55.143Z,73.47
2019-04-05T23:05:23.356Z,75.17
2019-04-05T23:07:51.568Z,71.20
2019-04-05T23:10:19.776Z,72.03
2019-04-05T23:12:48.012Z,70.70
2019-04-05T23:15:16.214Z,65.90
2019-04-05T23:17:44.432Z,65.60
2019-04-05T23:20:12.640Z,65.60
2019-04-05T23:22:40.866Z,66.07
2019-04-05T23:25:09.079Z,66.10
2019-04-05T23:27:37.313Z,64.27
2019-04-05T23:30:09.067Z,60.63
2019-04-05T23:32:37.535Z,64.23
2019-04-05T23:35:06.618Z,62.67
2019-04-05T23:37:34.826Z,58.97
2019-04-05T23:40:03.325Z,58.57
2019-04-05T23:42:31.529Z,55.93
2019-04-05T23:44:59.736Z,56.90
2019-04-05T23:47:27.978Z,55.97
2019-04-05T23:49:56.161Z,55.70
2019-04-05T23:52:24.551Z,55.30
2019-04-05T23:54:52.758Z,55.10
2019-04-05T23:57:20.985Z,55.07
2019-04-05T23:59:49.903Z,54.80
